Time;durP1;ratioP1;P1;durP2;ratioP2;P2;SDS_P1;SDS_P2;PMS_P1;PMS_P2;Temp;Humidity;BMP_temperature;BMP_pressure;BME280_temperature;BME280_humidity;BME280_pressure;Samples;Min_cycle;Max_cycle;Signal;HPM_P1;HPM_P2
2023/05/17 00:01:50;;;;;;;10.10;5.50;;;;;;;16.41;58.61;100949.89;1651039;86;21320;-58
2023/05/17 00:04:57;;;;;;;10.20;5.45;;;;;;;16.40;58.64;100956.48;1652822;86;21235;-58
2023/05/17 00:08:03;;;;;;;12.78;5.20;;;;;;;16.39;58.68;100955.30;1651533;85;21236;-59
2023/05/17 00:11:09;;;;;;;9.33;5.78;;;;;;;16.38;58.72;100950.81;1653438;86;21275;-58
2023/05/17 00:14:15;;;;;;;7.05;5.33;;;;;;;16.36;58.78;100951.56;1653390;86;21279;-57
2023/05/17 00:17:22;;;;;;;9.13;6.05;;;;;;;16.35;58.82;100952.59;1653135;86;21224;-58
2023/05/17 00:20:29;;;;;;;9.53;5.50;;;;;;;16.35;58.92;100953.47;1653306;86;21272;-58
2023/05/17 00:23:36;;;;;;;8.10;5.28;;;;;;;16.34;58.95;100953.66;1652873;86;21247;-58
2023/05/17 00:26:44;;;;;;;11.88;5.20;;;;;;;16.34;58.98;100954.53;1651812;86;21193;-57
2023/05/17 00:29:51;;;;;;;9.43;5.15;;;;;;;16.35;59.12;100958.99;1653178;86;21236;-57
2023/05/17 00:33:00;;;;;;;11.30;4.75;;;;;;;16.36;59.15;100960.69;1650317;86;21256;-57
2023/05/17 00:36:06;;;;;;;6.00;4.53;;;;;;;16.38;59.13;100965.50;1652333;84;21253;-58
2023/05/17 00:39:14;;;;;;;8.78;5.33;;;;;;;16.39;59.13;100960.28;1651003;86;21244;-58
2023/05/17 00:42:13;;;;;;;7.53;4.62;;;;;;;16.42;59.20;100965.45;1650873;86;21209;-58
2023/05/17 00:45:19;;;;;;;6.15;4.10;;;;;;;16.44;59.22;100963.86;1652989;85;21745;-57
2023/05/17 00:48:26;;;;;;;5.55;3.60;;;;;;;16.46;59.21;100963.69;1653234;86;21244;-58
2023/05/17 00:51:33;;;;;;;6.28;4.15;;;;;;;16.48;59.19;100967.09;1649904;86;21245;-57
2023/05/17 00:54:41;;;;;;;6.30;3.90;;;;;;;16.48;59.15;100964.33;1652980;86;21251;-58
2023/05/17 00:57:46;;;;;;;6.33;3.62;;;;;;;16.48;59.15;100974.86;1650430;86;21287;-58
2023/05/17 01:00:52;;;;;;;7.22;3.33;;;;;;;16.48;59.09;100974.86;1650266;86;21204;-57
2023/05/17 01:03:59;;;;;;;8.18;3.72;;;;;;;16.50;59.08;100978.29;1652495;86;21248;-58
2023/05/17 01:07:08;;;;;;;6.55;3.95;;;;;;;16.51;59.02;100978.61;1652726;86;21220;-58
2023/05/17 01:10:16;;;;;;;7.08;3.60;;;;;;;16.52;59.02;100981.72;1652738;86;21333;-58
2023/05/17 01:13:28;;;;;;;5.17;3.75;;;;;;;16.53;59.01;100983.42;1659311;86;21244;-59
2023/05/17 01:16:38;;;;;;;9.73;3.95;;;;;;;16.52;58.96;100977.57;1651216;86;21733;-58
2023/05/17 01:20:12;;;;;;;5.95;3.65;;;;;;;16.52;58.91;100979.47;1652441;86;21244;-58
2023/05/17 01:23:28;;;;;;;5.85;3.60;;;;;;;16.52;58.85;100973.42;1652884;86;21734;-59
2023/05/17 01:26:46;;;;;;;6.95;3.33;;;;;;;16.52;58.81;100972.56;1651466;86;21264;-58
2023/05/17 01:29:51;;;;;;;11.75;3.60;;;;;;;16.52;58.79;100969.80;1651414;86;21268;-59
2023/05/17 01:32:58;;;;;;;6.55;3.60;;;;;;;16.52;58.72;100969.80;1652266;86;21260;-59
2023/05/17 01:36:04;;;;;;;7.20;3.70;;;;;;;16.49;58.59;100976.56;1652085;86;21216;-58
2023/05/17 01:39:11;;;;;;;7.95;3.67;;;;;;;16.47;58.51;100978.69;1622301;88;21319;-58
2023/05/17 01:42:21;;;;;;;9.95;4.35;;;;;;;16.46;58.46;100978.89;1622150;88;21228;-58
2023/05/17 01:45:38;;;;;;;11.12;3.12;;;;;;;16.44;58.44;100975.78;1622040;88;21271;-58
2023/05/17 01:48:47;;;;;;;9.85;3.35;;;;;;;16.42;58.33;100976.50;1622030;88;21290;-58
2023/05/17 01:51:58;;;;;;;5.72;3.55;;;;;;;16.42;58.41;100979.27;1622075;88;21228;-58
2023/05/17 01:55:30;;;;;;;12.47;3.37;;;;;;;16.43;58.40;100981.48;1622015;88;21294;-58
2023/05/17 01:58:40;;;;;;;7.92;3.37;;;;;;;16.43;58.36;100978.71;1622090;88;21243;-58
2023/05/17 02:01:45;;;;;;;7.42;3.10;;;;;;;16.42;58.22;100983.41;1622077;88;21223;-58
2023/05/17 02:04:53;;;;;;;6.33;3.08;;;;;;;16.42;58.13;100986.69;1621831;88;21336;-58
2023/05/17 02:08:02;;;;;;;10.60;3.45;;;;;;;16.40;58.16;100979.98;1622176;88;21234;-58
2023/05/17 02:11:10;;;;;;;8.18;3.22;;;;;;;16.41;58.10;100988.59;1622258;88;21295;-57
2023/05/17 02:14:16;;;;;;;6.47;3.22;;;;;;;16.42;58.03;100990.31;1622059;88;21812;-58
2023/05/17 02:17:23;;;;;;;9.83;3.02;;;;;;;16.41;58.01;100989.97;1622080;88;21260;-58
2023/05/17 02:20:30;;;;;;;4.20;2.67;;;;;;;16.42;57.95;100991.70;1622066;87;21240;-58
2023/05/17 02:23:38;;;;;;;4.22;2.50;;;;;;;16.43;57.87;100995.30;1622212;88;21292;-58
2023/05/17 02:26:44;;;;;;;4.80;2.67;;;;;;;16.42;57.77;100997.74;1622400;88;21223;-58
2023/05/17 02:29:50;;;;;;;7.50;3.12;;;;;;;16.43;57.69;101003.07;1622504;88;21791;-58
2023/05/17 02:32:58;;;;;;;5.97;2.80;;;;;;;16.43;57.66;101005.83;1622141;88;21216;-59
2023/05/17 02:36:04;;;;;;;5.40;2.80;;;;;;;16.46;57.64;101003.77;1607060;88;21830;-57
2023/05/17 02:39:10;;;;;;;6.95;2.80;;;;;;;16.45;57.59;101002.91;1644346;83;21228;-57
2023/05/17 02:42:16;;;;;;;4.72;2.62;;;;;;;16.47;57.54;101006.33;1649991;87;21384;-58
2023/05/17 02:45:23;;;;;;;6.65;2.83;;;;;;;16.49;57.50;101006.97;1649800;87;21200;-59
2023/05/17 02:48:30;;;;;;;4.37;2.52;;;;;;;16.51;57.43;101012.33;1650393;86;21260;-58
2023/05/17 02:51:37;;;;;;;6.55;3.00;;;;;;;16.52;57.26;101014.02;1649615;87;21189;-58
2023/05/17 02:54:44;;;;;;;6.17;2.75;;;;;;;16.49;57.16;101013.04;1650024;87;21371;-58
2023/05/17 02:57:50;;;;;;;5.30;2.67;;;;;;;16.49;57.12;101010.28;1641564;87;21265;-58
2023/05/17 03:00:57;;;;;;;4.33;2.62;;;;;;;16.51;57.04;101014.54;1649815;87;21240;-58
2023/05/17 03:04:03;;;;;;;4.78;2.70;;;;;;;16.52;57.00;101019.55;1650046;86;21268;-58
2023/05/17 03:07:10;;;;;;;6.33;2.77;;;;;;;16.53;56.89;101025.39;1649814;87;21233;-57
2023/05/17 03:10:16;;;;;;;6.87;3.00;;;;;;;16.54;56.83;101020.22;1649750;86;21257;-57
2023/05/17 03:13:21;;;;;;;13.18;3.50;;;;;;;16.56;56.77;101020.84;1649891;85;21316;-57
2023/05/17 03:16:28;;;;;;;6.22;2.98;;;;;;;16.56;56.62;101027.76;1649747;87;21224;-57
2023/05/17 03:19:34;;;;;;;11.53;3.27;;;;;;;16.57;56.52;101030.33;1649540;86;21256;-58
2023/05/17 03:22:41;;;;;;;5.62;3.08;;;;;;;16.58;56.42;101031.19;1650247;86;21378;-57
2023/05/17 03:25:48;;;;;;;11.25;3.40;;;;;;;16.59;56.37;101038.41;1649840;87;21193;-57
2023/05/17 03:28:58;;;;;;;7.40;3.15;;;;;;;16.61;56.36;101038.56;1649567;86;21245;-57
2023/05/17 03:32:07;;;;;;;5.47;3.70;;;;;;;16.63;56.29;101044.76;1649692;87;21248;-56
2023/05/17 03:35:13;;;;;;;9.73;3.45;;;;;;;16.65;56.16;101044.56;1650356;86;21229;-57
2023/05/17 03:38:20;;;;;;;6.33;3.22;;;;;;;16.68;56.10;101047.75;1649799;87;21761;-57
2023/05/17 03:41:26;;;;;;;8.83;3.70;;;;;;;16.71;55.98;101059.83;1622150;87;21220;-57
2023/05/17 03:44:31;;;;;;;8.98;3.67;;;;;;;16.73;55.85;101056.86;1622204;88;21247;-57
2023/05/17 03:47:38;;;;;;;8.08;3.80;;;;;;;16.75;55.78;101066.66;1621989;87;21219;-57
2023/05/17 03:50:48;;;;;;;6.17;3.15;;;;;;;16.80;55.83;101062.77;1622187;88;21779;-58
2023/05/17 03:53:53;;;;;;;6.65;3.67;;;;;;;16.85;55.77;101063.03;1622017;87;21275;-58
2023/05/17 03:57:00;;;;;;;8.08;3.30;;;;;;;16.92;55.70;101071.39;1622197;88;21275;-57
2023/05/17 04:00:09;;;;;;;8.43;3.12;;;;;;;17.00;55.65;101071.25;1622273;88;21239;-57
2023/05/17 04:03:16;;;;;;;5.72;3.52;;;;;;;17.05;55.56;101072.86;1622206;88;21308;-58
2023/05/17 04:06:22;;;;;;;6.25;3.60;;;;;;;17.11;55.46;101072.91;1622036;87;21288;-58
2023/05/17 04:09:28;;;;;;;8.78;3.20;;;;;;;17.16;55.36;101078.70;1622152;88;21248;-57
2023/05/17 04:12:36;;;;;;;9.25;3.02;;;;;;;17.21;55.27;101071.17;1622130;88;21283;-58
2023/05/17 04:15:42;;;;;;;6.35;2.95;;;;;;;17.26;55.23;101081.98;1622205;87;21271;-59
2023/05/17 04:18:51;;;;;;;10.60;3.60;;;;;;;17.32;55.14;101078.91;1622085;88;21283;-58
2023/05/17 04:21:57;;;;;;;10.88;3.15;;;;;;;17.38;55.05;101082.25;1622063;88;21235;-57
2023/05/17 04:25:05;;;;;;;5.42;3.17;;;;;;;17.44;54.92;101085.61;1622058;88;21271;-58
2023/05/17 04:28:11;;;;;;;6.30;3.15;;;;;;;17.54;54.95;101087.50;1621776;87;21248;-57
2023/05/17 04:31:21;;;;;;;8.98;2.65;;;;;;;17.66;54.90;101088.66;1621763;87;21263;-57
2023/05/17 04:34:28;;;;;;;7.08;3.00;;;;;;;17.80;54.79;101091.81;1622112;87;21267;-57
2023/05/17 04:37:38;;;;;;;11.48;2.80;;;;;;;17.96;54.75;101087.31;1621894;88;21491;-58
2023/05/17 04:40:44;;;;;;;7.60;3.10;;;;;;;18.14;54.64;101088.13;1653027;82;21855;-57
2023/05/17 04:43:50;;;;;;;6.37;2.65;;;;;;;18.29;54.52;101088.80;1678346;84;21228;-57
2023/05/17 04:46:58;;;;;;;8.00;3.20;;;;;;;18.42;54.43;101084.20;1673088;85;21828;-57
2023/05/17 04:50:05;;;;;;;5.87;2.83;;;;;;;18.56;54.29;101089.23;1624968;87;21541;-56
2023/05/17 04:53:10;;;;;;;12.47;3.55;;;;;;;18.69;54.13;101101.22;1643849;85;21602;-57
2023/05/17 04:56:16;;;;;;;6.95;2.90;;;;;;;18.83;54.04;101107.63;1640331;86;21292;-57
2023/05/17 04:59:22;;;;;;;12.70;3.58;;;;;;;18.94;53.88;101112.02;1677407;84;21293;-55
2023/05/17 05:02:30;;;;;;;9.18;3.62;;;;;;;19.03;53.73;101117.67;1638688;86;21277;-54
2023/05/17 05:05:37;;;;;;;8.98;3.10;;;;;;;19.15;53.61;101113.73;1650146;87;21212;-56
2023/05/17 05:08:44;;;;;;;4.85;2.60;;;;;;;19.22;53.40;101112.66;1650546;85;21807;-55
2023/05/17 05:11:50;;;;;;;7.00;2.95;;;;;;;19.33;53.31;101120.38;1668303;84;21263;-55
2023/05/17 05:14:57;;;;;;;8.93;2.70;;;;;;;19.44;53.18;101115.25;1638038;87;21361;-55
2023/05/17 05:18:05;;;;;;;5.67;3.30;;;;;;;19.56;53.08;101112.98;1678079;84;21559;-57
2023/05/17 05:21:12;;;;;;;9.70;2.70;;;;;;;19.71;52.96;101109.97;1677629;84;21307;-57
2023/05/17 05:24:19;;;;;;;6.78;2.52;;;;;;;19.84;52.88;101108.52;1660982;84;21275;-56
2023/05/17 05:27:27;;;;;;;5.30;2.90;;;;;;;19.94;52.62;101115.34;1667544;84;21198;-57
2023/05/17 05:30:35;;;;;;;10.35;2.70;;;;;;;20.04;52.34;101114.88;1675646;85;21224;-55
2023/05/17 05:33:42;;;;;;;4.12;2.47;;;;;;;20.15;52.24;101128.96;1672746;84;21211;-59
2023/05/17 05:36:51;;;;;;;12.55;3.12;;;;;;;20.20;51.88;101115.81;1641893;86;21247;-58
2023/05/17 05:39:59;;;;;;;5.90;2.42;;;;;;;20.24;51.80;101119.32;1668751;85;21218;-56
2023/05/17 05:43:09;;;;;;;7.08;2.60;;;;;;;20.30;51.62;101123.99;1661192;84;21219;-56
2023/05/17 05:46:15;;;;;;;6.72;2.80;;;;;;;20.29;51.33;101120.05;1665000;84;21224;-56
2023/05/17 05:49:22;;;;;;;7.65;2.40;;;;;;;20.31;51.22;101124.86;1677302;84;21556;-56
2023/05/17 05:52:28;;;;;;;11.55;4.15;;;;;;;20.39;51.11;101124.05;1671398;84;21215;-57
2023/05/17 05:55:34;;;;;;;4.70;2.52;;;;;;;20.53;51.05;101135.41;1672573;84;21326;-52
2023/05/17 05:58:41;;;;;;;10.10;7.47;;;;;;;20.68;50.97;101133.73;1643603;86;21247;-51
2023/05/17 06:01:49;;;;;;;4.37;2.77;;;;;;;20.80;50.75;101133.35;1653597;85;21768;-54
2023/05/17 06:05:03;;;;;;;5.33;2.20;;;;;;;20.86;50.49;101131.58;1619662;87;21854;-53
2023/05/17 06:08:11;;;;;;;6.03;2.35;;;;;;;20.94;50.32;101134.96;1634236;87;21312;-54
2023/05/17 06:11:17;;;;;;;6.35;2.30;;;;;;;21.10;50.29;101138.63;1584227;87;21225;-53
2023/05/17 06:14:23;;;;;;;4.78;2.02;;;;;;;21.28;50.08;101142.85;1632510;88;21217;-54
2023/05/17 06:17:30;;;;;;;10.53;2.05;;;;;;;21.43;49.96;101133.62;1633009;88;21229;-52
2023/05/17 06:20:38;;;;;;;4.80;1.92;;;;;;;21.68;49.90;101141.42;1633168;88;21249;-53
2023/05/17 06:23:44;;;;;;;5.15;1.77;;;;;;;21.85;49.62;101135.58;1633311;87;21785;-53
2023/05/17 06:26:51;;;;;;;9.28;3.40;;;;;;;22.02;49.43;101138.06;1633483;88;21253;-53
2023/05/17 06:29:59;;;;;;;2.33;1.55;;;;;;;22.16;49.13;101135.98;1632306;88;21268;-54
2023/05/17 06:33:06;;;;;;;3.67;1.85;;;;;;;22.28;48.84;101136.06;1621094;87;21255;-53
2023/05/17 06:36:12;;;;;;;3.30;1.60;;;;;;;22.34;48.51;101131.80;1677300;84;21259;-55
2023/05/17 06:39:17;;;;;;;5.15;1.30;;;;;;;22.42;48.25;101130.62;1679581;84;21231;-57
2023/05/17 06:42:24;;;;;;;20.02;2.20;;;;;;;22.51;47.95;101133.38;1675870;84;21211;-56
2023/05/17 06:45:31;;;;;;;3.35;1.37;;;;;;;22.53;47.59;101131.25;1673323;85;21220;-56
2023/05/17 06:48:38;;;;;;;8.95;1.77;;;;;;;22.54;47.38;101128.75;1680939;85;21208;-55
2023/05/17 06:51:44;;;;;;;4.62;1.40;;;;;;;22.67;47.26;101129.44;1680483;84;21252;-56
2023/05/17 06:54:50;;;;;;;7.28;1.95;;;;;;;22.75;46.99;101126.31;1676064;84;21259;-57
2023/05/17 06:57:57;;;;;;;8.83;1.70;;;;;;;22.87;46.72;101128.59;1675078;85;21765;-56
2023/05/17 07:01:02;;;;;;;2.87;1.60;;;;;;;22.99;46.54;101125.84;1672438;85;21191;-56
2023/05/17 07:04:11;;;;;;;6.62;1.67;;;;;;;23.14;46.37;101124.83;1659176;84;21346;-58
2023/05/17 07:07:17;;;;;;;3.22;1.30;;;;;;;23.23;46.08;101129.00;1681680;83;21184;-58
2023/05/17 07:10:23;;;;;;;5.45;1.50;;;;;;;23.35;46.00;101125.16;1673503;84;21205;-58
2023/05/17 07:13:29;;;;;;;3.87;1.87;;;;;;;23.48;45.74;101122.11;1670737;84;21200;-60
2023/05/17 07:16:36;;;;;;;3.17;1.80;;;;;;;23.57;45.33;101128.20;1679803;84;21753;-58
2023/05/17 07:19:42;;;;;;;3.75;1.85;;;;;;;23.63;45.12;101124.43;1653909;83;21252;-58
2023/05/17 07:22:50;;;;;;;5.15;1.75;;;;;;;23.73;44.89;101132.20;1679535;85;21200;-58
2023/05/17 07:25:57;;;;;;;5.80;1.52;;;;;;;23.86;44.68;101127.23;1679851;84;21737;-58
2023/05/17 07:29:06;;;;;;;5.60;1.60;;;;;;;23.89;44.35;101122.55;1675988;84;21749;-56
2023/05/17 07:32:12;;;;;;;3.95;1.90;;;;;;;24.03;44.23;101127.34;1675780;84;21270;-58
2023/05/17 07:35:17;;;;;;;3.17;1.85;;;;;;;24.16;43.97;101123.75;1679968;84;21276;-57
2023/05/17 07:38:24;;;;;;;7.22;2.67;;;;;;;24.18;43.59;101120.13;1665846;84;21332;-59
2023/05/17 07:41:30;;;;;;;5.25;2.12;;;;;;;24.23;43.42;101125.84;1677848;84;21309;-56
2023/05/17 07:44:36;;;;;;;4.10;1.77;;;;;;;24.29;43.20;101121.22;1678144;83;21244;-57
2023/05/17 07:47:42;;;;;;;5.70;1.98;;;;;;;24.39;43.09;101125.61;1675910;84;21271;-55
2023/05/17 07:50:49;;;;;;;5.55;1.85;;;;;;;24.46;42.89;101114.59;1657990;85;21237;-57
2023/05/17 07:53:54;;;;;;;6.50;2.62;;;;;;;24.61;42.65;101113.48;1671545;85;21304;-55
2023/05/17 07:57:01;;;;;;;4.30;1.82;;;;;;;24.65;42.38;101116.64;1673638;85;21229;-54
2023/05/17 08:00:07;;;;;;;4.10;2.08;;;;;;;24.75;42.27;101109.88;1639063;86;21567;-56
2023/05/17 08:03:13;;;;;;;6.28;1.85;;;;;;;24.85;42.08;101111.45;1612369;88;22081;-60
2023/05/17 08:06:19;;;;;;;9.28;2.60;;;;;;;24.95;41.94;101112.52;1638357;87;21281;-55
2023/05/17 08:09:25;;;;;;;11.65;3.02;;;;;;;25.01;41.80;101102.23;1623911;87;21321;-56
2023/05/17 08:12:32;;;;;;;6.83;2.08;;;;;;;25.02;41.61;101096.38;1624993;87;22103;-58
2023/05/17 08:15:41;;;;;;;11.70;3.15;;;;;;;25.07;41.48;101097.02;1639875;85;21251;-59
2023/05/17 08:18:49;;;;;;;7.92;2.37;;;;;;;25.12;41.31;101094.87;1619832;87;21280;-58
2023/05/17 08:21:57;;;;;;;11.48;2.55;;;;;;;25.10;41.00;101085.86;1609699;88;21312;-58
2023/05/17 08:25:04;;;;;;;10.15;2.12;;;;;;;25.11;40.83;101091.75;1614756;88;21263;-57
2023/05/17 08:28:11;;;;;;;8.35;2.50;;;;;;;25.08;40.58;101090.33;1611898;87;21252;-59
2023/05/17 08:31:17;;;;;;;10.15;2.05;;;;;;;25.10;40.39;101094.27;1603573;89;21774;-59
2023/05/17 08:34:24;;;;;;;5.03;1.57;;;;;;;25.11;40.21;101094.55;1620262;86;21760;-57
2023/05/17 08:37:31;;;;;;;3.58;1.42;;;;;;;25.16;40.09;101093.25;1629508;87;21245;-58
2023/05/17 08:40:38;;;;;;;5.92;1.62;;;;;;;25.30;39.97;101096.01;1626979;88;21252;-59
2023/05/17 08:43:44;;;;;;;4.12;1.47;;;;;;;25.38;39.75;101090.87;1645616;86;21236;-60
2023/05/17 08:46:52;;;;;;;3.17;1.30;;;;;;;25.45;39.58;101083.11;1636207;85;21562;-60
2023/05/17 08:50:04;;;;;;;4.95;1.45;;;;;;;25.46;39.33;101085.38;1649472;86;21287;-60
2023/05/17 08:53:09;;;;;;;;;;;;;;;25.50;39.18;101083.20;1636813;86;21288;-60
2023/05/17 08:56:15;;;;;;;5.70;1.20;;;;;;;25.52;38.89;101078.73;1637143;87;20221;-60
2023/05/17 08:59:21;;;;;;;5.58;1.30;;;;;;;25.49;38.75;101080.66;1631529;87;21939;-58
2023/05/17 09:02:29;;;;;;;8.33;1.80;;;;;;;25.46;38.58;101088.17;1632229;86;21246;-58
2023/05/17 09:05:36;;;;;;;5.05;1.67;;;;;;;25.48;38.51;101077.56;1633663;86;21596;-54
2023/05/17 09:08:44;;;;;;;3.60;1.60;;;;;;;25.51;38.34;101078.45;1612905;87;21297;-55
2023/05/17 09:11:50;;;;;;;3.50;1.62;;;;;;;25.46;38.05;101086.23;1616214;88;21224;-55
2023/05/17 09:14:55;;;;;;;5.25;1.45;;;;;;;25.41;37.84;101082.48;1619054;88;21240;-54
2023/05/17 09:18:02;;;;;;;1.87;1.30;;;;;;;25.39;37.71;101080.48;1618333;87;21295;-55
2023/05/17 09:21:10;;;;;;;4.90;1.67;;;;;;;25.39;37.51;101072.06;1606907;88;21574;-54
2023/05/17 09:24:17;;;;;;;5.97;1.67;;;;;;;25.44;37.46;101080.03;1618749;88;21287;-55
2023/05/17 09:27:25;;;;;;;2.08;1.50;;;;;;;25.50;37.45;101073.38;1628900;87;21225;-55
2023/05/17 09:30:38;;;;;;;5.55;1.50;;;;;;;25.53;37.28;101067.26;1649870;86;21877;-55
2023/05/17 09:33:54;;;;;;;4.33;1.67;;;;;;;25.51;37.11;101073.70;1625142;87;21284;-55
2023/05/17 09:37:01;;;;;;;2.22;1.47;;;;;;;25.51;36.93;101072.84;1622032;87;21261;-56
2023/05/17 09:40:09;;;;;;;5.37;1.30;;;;;;;25.50;36.67;101070.58;1639639;87;21288;-57
2023/05/17 09:43:17;;;;;;;5.83;1.20;;;;;;;25.58;36.67;101069.28;1639388;86;21267;-55
2023/05/17 09:46:26;;;;;;;7.15;1.90;;;;;;;25.65;36.52;101075.03;1678280;84;21275;-55
2023/05/17 09:49:35;;;;;;;3.00;1.60;;;;;;;25.71;36.45;101066.12;1623968;87;21347;-55
2023/05/17 09:52:45;;;;;;;2.97;1.63;;;;;;;25.83;36.43;101065.48;1681933;84;21291;-55
2023/05/17 09:55:56;;;;;;;2.85;1.47;;;;;;;25.97;36.32;101056.97;1675884;84;21288;-55
2023/05/17 09:59:02;;;;;;;3.08;1.37;;;;;;;26.10;36.07;101055.21;1672053;85;21282;-55
2023/05/17 10:02:08;;;;;;;6.37;1.57;;;;;;;26.21;35.91;101043.00;1636213;87;21236;-58
2023/05/17 10:05:18;;;;;;;3.70;1.40;;;;;;;26.21;35.71;101047.21;1668799;85;21251;-57
2023/05/17 10:08:27;;;;;;;3.92;1.57;;;;;;;26.21;35.48;101041.59;1681411;84;21252;-58
2023/05/17 10:11:36;;;;;;;6.10;1.70;;;;;;;26.28;35.40;101042.22;1680285;85;21785;-57
2023/05/17 10:14:41;;;;;;;5.78;1.70;;;;;;;26.35;35.47;101038.09;1670847;84;21276;-56
2023/05/17 10:17:47;;;;;;;10.03;1.80;;;;;;;26.57;35.50;101035.81;1679810;84;21275;-58
2023/05/17 10:20:54;;;;;;;5.22;1.50;;;;;;;26.73;35.32;101031.53;1689028;83;21264;-57
2023/05/17 10:24:01;;;;;;;4.12;2.00;;;;;;;26.82;35.19;101038.91;1678908;84;22117;-59
2023/05/17 10:27:06;;;;;;;5.97;2.00;;;;;;;26.88;35.09;101032.23;1657471;84;21833;-57
2023/05/17 10:30:16;;;;;;;5.62;1.70;;;;;;;27.04;35.04;101028.42;1669677;84;21240;-57
2023/05/17 10:33:22;;;;;;;9.30;2.05;;;;;;;27.17;34.92;101019.54;1662666;84;21828;-59
2023/05/17 10:36:30;;;;;;;6.25;1.72;;;;;;;27.24;34.71;101028.02;1673124;84;21221;-57
2023/05/17 10:39:37;;;;;;;3.60;1.42;;;;;;;27.27;34.52;101022.47;1639862;85;21235;-56
2023/05/17 10:42:44;;;;;;;8.75;1.47;;;;;;;27.37;34.38;101019.16;1676520;84;21757;-58
2023/05/17 10:45:52;;;;;;;3.47;1.50;;;;;;;27.52;34.33;101018.42;1676405;85;21725;-56
2023/05/17 10:49:02;;;;;;;5.95;1.75;;;;;;;27.61;34.24;101016.23;1677670;83;21780;-57
2023/05/17 10:52:24;;;;;;;6.67;1.65;;;;;;;27.69;34.08;101016.27;1658118;85;21742;-57
2023/05/17 10:55:32;;;;;;;6.87;1.80;;;;;;;27.72;33.88;101012.90;1663844;85;21211;-57
2023/05/17 10:58:40;;;;;;;4.10;1.45;;;;;;;27.70;33.74;101013.76;1680827;84;21813;-57
2023/05/17 11:02:13;;;;;;;10.00;1.62;;;;;;;27.67;33.57;101004.45;1681041;85;21261;-57
2023/05/17 11:05:33;;;;;;;2.12;1.40;;;;;;;27.60;33.35;101000.48;1669149;84;21255;-56
2023/05/17 11:08:40;;;;;;;4.58;1.42;;;;;;;27.57;33.31;101003.84;1673195;83;21248;-58
2023/05/17 11:12:11;;;;;;;8.45;1.60;;;;;;;27.55;33.24;100993.41;1672811;85;21201;-58
2023/05/17 11:15:21;;;;;;;4.47;1.52;;;;;;;27.49;33.11;100993.65;1664413;84;21229;-58
2023/05/17 11:18:29;;;;;;;3.65;1.50;;;;;;;27.32;32.92;100992.40;1677546;84;21241;-58
2023/05/17 11:21:37;;;;;;;7.45;1.47;;;;;;;27.41;33.04;100992.20;1677931;84;21534;-56
2023/05/17 11:24:52;;;;;;;8.18;2.50;;;;;;;27.63;33.09;100984.45;1680415;84;21336;-57
2023/05/17 11:28:00;;;;;;;4.90;1.57;;;;;;;27.82;33.05;100978.64;1636898;87;21663;-57
2023/05/17 11:31:08;;;;;;;5.15;1.90;;;;;;;27.95;32.98;100980.13;1634058;87;21224;-56
2023/05/17 11:34:14;;;;;;;2.85;1.90;;;;;;;28.00;32.75;100971.70;1631457;85;21308;-56
2023/05/17 11:37:23;;;;;;;7.22;2.50;;;;;;;28.02;32.56;100978.47;1671086;85;21260;-56
2023/05/17 11:40:34;;;;;;;6.65;1.90;;;;;;;28.07;32.51;100981.31;1658941;85;21268;-55
2023/05/17 11:43:40;;;;;;;5.85;2.22;;;;;;;28.17;32.37;100971.46;1669898;85;21272;-53
2023/05/17 11:46:45;;;;;;;7.22;2.25;;;;;;;28.27;32.25;100967.28;1673177;84;21781;-53
2023/05/17 11:49:51;;;;;;;5.17;2.00;;;;;;;28.35;32.07;100968.14;1671112;83;21767;-54
2023/05/17 11:52:58;;;;;;;3.08;1.70;;;;;;;28.31;31.79;100960.80;1616644;87;21212;-53
2023/05/17 11:56:04;;;;;;;5.00;2.00;;;;;;;28.34;31.70;100957.98;1651977;84;21287;-56
2023/05/17 11:59:09;;;;;;;7.10;1.95;;;;;;;28.39;31.59;100949.55;1643894;86;21223;-53
2023/05/17 12:02:15;;;;;;;6.28;2.15;;;;;;;28.43;31.40;100949.28;1655053;84;21869;-50
2023/05/17 12:05:28;;;;;;;5.15;1.70;;;;;;;28.41;31.16;100948.70;1652612;84;21271;-51
2023/05/17 12:08:34;;;;;;;4.05;1.72;;;;;;;28.42;31.13;100951.24;1656862;85;21208;-52
2023/05/17 12:11:42;;;;;;;4.85;1.95;;;;;;;28.53;31.01;100945.08;1651066;85;21864;-51
2023/05/17 12:14:49;;;;;;;4.17;2.02;;;;;;;28.53;30.65;100939.44;1616352;86;21261;-51
2023/05/17 12:17:55;;;;;;;3.10;1.85;;;;;;;28.45;30.36;100932.92;1656249;84;21247;-52
2023/05/17 12:21:05;;;;;;;5.67;1.80;;;;;;;28.42;30.23;100929.26;1657335;84;21776;-50
2023/05/17 12:24:13;;;;;;;16.02;2.00;;;;;;;28.42;30.20;100919.40;1655579;84;21669;-50
2023/05/17 12:27:18;;;;;;;3.72;1.40;;;;;;;28.42;30.00;100920.80;1651920;84;21341;-52
2023/05/17 12:30:26;;;;;;;3.52;1.67;;;;;;;28.36;29.86;100921.38;1651068;84;21573;-50
2023/05/17 12:33:32;;;;;;;4.78;1.32;;;;;;;28.28;29.58;100918.26;1658743;84;22038;-50
2023/05/17 12:36:39;;;;;;;8.00;1.60;;;;;;;28.05;29.33;100911.75;1658156;85;21761;-51
2023/05/17 12:39:47;;;;;;;2.90;1.50;;;;;;;27.97;29.25;100914.55;1616208;87;21310;-54
2023/05/17 12:42:52;;;;;;;5.40;1.60;;;;;;;28.02;29.28;100910.31;1655845;84;21232;-52
2023/05/17 12:46:00;;;;;;;2.65;1.47;;;;;;;28.13;29.27;100901.35;1662589;84;21224;-50
2023/05/17 12:49:11;;;;;;;5.22;1.60;;;;;;;28.17;28.95;100903.33;1657281;85;21255;-51
2023/05/17 12:52:19;;;;;;;2.92;1.98;;;;;;;28.22;28.83;100897.70;1644742;85;21199;-54
2023/05/17 12:55:25;;;;;;;5.78;1.85;;;;;;;28.23;28.65;100891.48;1611083;87;21285;-54
2023/05/17 12:58:31;;;;;;;5.40;1.42;;;;;;;28.18;28.49;100889.52;1625143;86;21253;-54
2023/05/17 13:01:42;;;;;;;3.15;1.60;;;;;;;28.02;28.32;100892.59;1620492;87;21294;-55
2023/05/17 13:04:49;;;;;;;4.97;1.70;;;;;;;28.00;28.27;100893.43;1607036;88;21265;-55
2023/05/17 13:07:56;;;;;;;4.70;1.40;;;;;;;28.02;28.31;100887.80;1617416;86;21285;-54
2023/05/17 13:11:14;;;;;;;1.95;1.60;;;;;;;28.07;28.24;100879.94;1616934;88;21575;-55
2023/05/17 13:14:19;;;;;;;1.62;1.30;;;;;;;28.17;28.17;100882.20;1634687;87;21825;-56
2023/05/17 13:17:44;;;;;;;3.58;1.27;;;;;;;28.30;28.12;100884.48;1632728;87;21220;-55
2023/05/17 13:20:51;;;;;;;7.35;1.47;;;;;;;28.41;28.04;100883.91;1640646;86;21279;-55
2023/05/17 13:23:57;;;;;;;5.25;1.20;;;;;;;28.47;27.92;100888.42;1643939;86;21759;-56
2023/05/17 13:27:05;;;;;;;2.33;1.52;;;;;;;28.49;27.70;100884.25;1619806;87;21781;-58
2023/05/17 13:30:11;;;;;;;3.22;1.50;;;;;;;28.49;27.53;100879.16;1646683;85;21808;-54
2023/05/17 13:33:17;;;;;;;8.10;1.70;;;;;;;28.44;27.37;100879.98;1593009;87;21252;-55
2023/05/17 13:36:26;;;;;;;3.22;1.30;;;;;;;28.44;27.40;100877.16;1617891;87;21301;-55
2023/05/17 13:39:32;;;;;;;3.98;1.12;;;;;;;28.49;27.32;100883.39;1620895;88;21323;-54
2023/05/17 13:42:39;;;;;;;4.85;1.17;;;;;;;28.47;27.21;100879.97;1620841;88;21253;-53
2023/05/17 13:45:45;;;;;;;1.90;1.20;;;;;;;28.59;27.31;100880.58;1620758;88;21259;-55
2023/05/17 13:48:52;;;;;;;1.62;1.15;;;;;;;28.84;27.31;100877.15;1639605;87;21240;-54
2023/05/17 13:51:57;;;;;;;3.45;1.30;;;;;;;29.24;27.16;100874.84;1641166;85;21751;-56
2023/05/17 13:55:03;;;;;;;5.30;1.40;;;;;;;29.24;27.16;100874.84;1641354;87;21225;-54
2023/05/17 13:58:08;;;;;;;1.80;1.12;;;;;;;29.29;26.90;100871.19;1641626;86;21249;-54
2023/05/17 14:01:14;;;;;;;7.50;1.50;;;;;;;29.22;26.84;100867.25;1643696;87;22213;-57
2023/05/17 14:04:21;;;;;;;7.72;1.85;;;;;;;29.14;26.78;100866.42;1638493;87;21227;-55
2023/05/17 14:07:28;;;;;;;4.00;1.30;;;;;;;28.98;26.68;100870.38;1642761;87;21296;-54
2023/05/17 14:10:36;;;;;;;2.85;1.47;;;;;;;28.46;26.36;100868.42;1636606;87;21220;-53
2023/05/17 14:13:41;;;;;;;6.50;1.40;;;;;;;28.46;26.36;100868.42;1667490;84;21232;-54
2023/05/17 14:16:47;;;;;;;5.50;1.20;;;;;;;28.20;26.43;100868.11;1674974;84;21706;-56
2023/05/17 14:19:54;;;;;;;5.55;1.90;;;;;;;28.13;26.88;100861.92;1667316;84;21547;-55
2023/05/17 14:23:00;;;;;;;7.28;1.65;;;;;;;28.13;26.88;100861.92;1674127;84;21228;-58
2023/05/17 14:26:06;;;;;;;6.10;1.70;;;;;;;28.36;26.78;100867.00;1651752;85;21785;-56
2023/05/17 14:29:12;;;;;;;3.47;1.50;;;;;;;28.60;26.69;100867.61;1649004;86;21245;-57
2023/05/17 14:32:17;;;;;;;3.52;1.42;;;;;;;28.64;26.67;100865.91;1668739;83;21216;-56